Impacts METAR Board
IDs:

KSEA - Seattle-Tacoma Intl, WA, US

Updated at: 2000 UTC 25 Apr 2018
Potential Impact None Slight Moderate High
Time 25/08Z 25/09Z 25/10Z 25/11Z 25/12Z 25/13Z 25/14Z 25/15Z 25/16Z 25/17Z 25/18Z 25/19Z 25/20Z
Temp58 55 54 55 53 52 54 57 59 62 65 68 69
Dewpt36 36 37 37 38 38 39 40 42 42 43 43 43
Altim30.07 30.07 30.07 30.07 30.08 30.08 30.10 30.11 30.12 30.12 30.13 30.13 30.12
VIS10 10 10 10 10 10 10 10 10 10 10 10 10
CIG-- -- -- -- -- -- -- -- -- -- -- -- --
CoverSCTFEWCLRSCTSCTSCTSCTSCTSCTSCTSCTSCTSCT
FltCatVFRVFRVFRVFRVFRVFRVFRVFRVFRVFRVFRVFRVFR
WX--------------------------
WDir20350102030104030360360360350350
WSpd12 6 9 9 8 8 9 13 10 8 10 8 10
WGst-- -- -- -- -- -- -- -- -- -- -- -- 15
Raw hourly METARs
KSEA 250753Z 02012KT 10SM SCT250 14/02 A3007 RMK AO2 SLP187 T01440022 402500094
KSEA 250853Z 35006KT 10SM FEW250 13/02 A3007 RMK AO2 SLP188 T01280022 52002
KSEA 250953Z 01009KT 10SM CLR 12/03 A3007 RMK AO2 SLP186 T01220028
KSEA 251053Z 02009KT 10SM SCT250 13/03 A3007 RMK AO2 SLP188 T01280028
KSEA 251153Z 03008KT 10SM SCT250 12/03 A3008 RMK AO2 SLP189 T01170033 10167 20106 53002
KSEA 251253Z 01008KT 10SM SCT200 11/03 A3008 RMK AO2 SLP192 T01110033
KSEA 251353Z 04009KT 10SM SCT220 12/04 A3010 RMK AO2 SLP198 T01220039
KSEA 251453Z 03013KT 10SM SCT250 14/04 A3011 RMK AO2 SLP203 T01390044 53012
KSEA 251602Z 36010KT 10SM SCT250 15/06 A3012 RMK AO2 T01500056
KSEA 251653Z 36008KT 10SM SCT250 17/06 A3012 RMK AO2 SLP205 T01670056
KSEA 251753Z 36010KT 10SM FEW150 SCT250 18/06 A3013 RMK AO2 SLP206 T01830061 10183 20106 53005
KSEA 251853Z 35008KT 10SM FEW150 SCT250 20/06 A3013 RMK AO2 SLP206 T02000061
KSEA 251953Z 35010G15KT 10SM FEW150 SCT250 21/06 A3012 RMK AO2 SLP204 T02060061



Page loaded:  20:15 UTC  |   01:15 PM Pacific  |   02:15 PM Mountain  |   03:15 PM Central  |   04:15 PM Eastern

 

ADVISORIES

FORECASTS

FORECASTS

OBSERVATIONS

USER TOOLS

ABOUT US